Charter Quote
Worldwide +1-877-727-2538 Call
Select Language Lang
SAFETY RELIABILITY EXPERIENCE

Richmond Airport (YSRI) - Jet Charter Services

AIRPORT INFORMATION
ICAOYSRI
IATARCM
LOCATIONRichmond, Australia
FACILITY TYPEAIRPORT
Runway Length (ft) Width (ft) Surface Type Elevation (ft)
28/10 7001 148 ASP 66.95082

At Paramount Business Jets you can hire chartered private jets to and from Richmond Airport with as little as 4 hours of notice. All flights booked via Paramount Business Jets are operated by certified direct air carriers that meet and exceed the FAA part 135 and 121 protocol or a foreign equivalent safety authority. Furthermore, Paramount Business Jets subscribes to ARGUS for their third party safety checks of operators, aircraft, and crews prior each and every flight to and from Richmond Airport and worldwide.

  • Quote a trip using Richmond Airport or call us 24/7 - 365 days a year at +1-877-727-2538.
Questions? Call +1-877-727-2538

METAR Weather Data at Richmond Airport, YSRI, RCM

STATIONYSRI
OBSERVEDTue Mar 19, 20:36 UTC
NOWTue Mar 19, 20:49 UTC
AGE13 min ago
WINDcalm
VISIBILITY2.3 miles
METARYSRI 192036Z AUTO 00000KT 1400 // SCT001 BKN023 OVC030 18/18 Q1014

Call us on +1-877-727-2538 (24 Hours) to Hire a Private Jet or Get a Quick Quote.

Find Airports Near any Location

Processing
...